createdAt,value
2023-01-07T00:01:27.619Z,9.23
2023-01-07T00:03:55.387Z,9.18
2023-01-07T00:06:24.153Z,8.85
2023-01-07T00:08:53.306Z,9.00
2023-01-07T00:11:22.682Z,8.27
2023-01-07T00:13:50.784Z,8.38
2023-01-07T00:16:19.245Z,8.25
2023-01-07T00:18:47.029Z,8.88
2023-01-07T00:21:15.279Z,8.50
2023-01-07T00:23:43.129Z,7.72
2023-01-07T00:26:14.947Z,7.60
2023-01-07T00:28:43.049Z,8.18
2023-01-07T00:31:14.548Z,7.35
2023-01-07T00:33:54.214Z,7.70
2023-01-07T00:36:26.102Z,7.45
2023-01-07T00:38:57.356Z,7.82
2023-01-07T00:41:25.073Z,7.63
2023-01-07T00:43:52.712Z,7.38
2023-01-07T00:46:20.926Z,7.43
2023-01-07T00:48:48.447Z,7.18
2023-01-07T00:51:16.703Z,6.72
2023-01-07T00:53:44.334Z,6.90
2023-01-07T00:56:12.273Z,6.82
2023-01-07T00:58:40.206Z,7.32
2023-01-07T01:01:07.486Z,6.70
2023-01-07T01:03:35.372Z,6.88
2023-01-07T01:06:07.841Z,6.28
2023-01-07T01:08:35.134Z,6.18
2023-01-07T01:11:06.349Z,6.13
2023-01-07T01:13:33.811Z,6.40
2023-01-07T01:16:01.090Z,6.35
2023-01-07T01:18:28.202Z,6.43
2023-01-07T01:20:55.469Z,6.10
2023-01-07T01:23:22.935Z,5.95
2023-01-07T01:25:50.380Z,6.25
2023-01-07T01:28:17.582Z,5.65
2023-01-07T01:30:44.924Z,5.85
2023-01-07T01:33:13.116Z,5.63
2023-01-07T01:35:41.154Z,5.75
2023-01-07T01:38:08.904Z,5.95
2023-01-07T01:40:36.240Z,6.53
2023-01-07T01:43:05.247Z,6.18
2023-01-07T01:45:32.620Z,5.90
2023-01-07T01:48:08.193Z,5.53
2023-01-07T01:50:44.797Z,6.40
2023-01-07T01:53:25.627Z,6.13
2023-01-07T01:55:58.121Z,5.90
2023-01-07T01:58:29.704Z,7.18
2023-01-07T02:00:59.091Z,6.50
2023-01-07T02:03:27.034Z,6.15
2023-01-07T02:05:54.742Z,6.13
2023-01-07T02:08:23.337Z,6.30
2023-01-07T02:11:12.671Z,6.28
2023-01-07T02:13:47.936Z,6.95
2023-01-07T02:16:19.826Z,6.15
2023-01-07T02:19:07.321Z,6.35
2023-01-07T02:21:38.858Z,6.80
2023-01-07T02:24:41.780Z,6.47
2023-01-07T02:27:21.051Z,6.10
2023-01-07T02:30:26.226Z,6.43
2023-01-07T02:32:56.647Z,6.13
2023-01-07T02:35:24.020Z,6.25
2023-01-07T02:38:03.889Z,5.88
2023-01-07T02:40:48.212Z,5.97
2023-01-07T02:43:31.057Z,5.80
2023-01-07T02:46:10.651Z,6.25
2023-01-07T02:48:39.919Z,5.80
2023-01-07T02:51:07.212Z,5.93
2023-01-07T02:53:34.891Z,5.70
2023-01-07T02:56:22.807Z,5.60
2023-01-07T02:59:01.490Z,6.13
2023-01-07T03:01:47.659Z,5.60
2023-01-07T03:04:15.248Z,5.15
2023-01-07T03:07:01.392Z,5.68
2023-01-07T03:09:42.175Z,4.88
2023-01-07T03:12:16.845Z,5.65
2023-01-07T03:14:52.444Z,5.75
2023-01-07T03:17:21.947Z,5.43
2023-01-07T03:19:51.907Z,5.15
2023-01-07T03:22:21.288Z,5.53
2023-01-07T03:27:17.288Z,5.25
2023-01-07T03:29:44.694Z,5.15
2023-01-07T03:32:38.298Z,5.25
2023-01-07T03:35:06.080Z,5.15
2023-01-07T03:37:34.344Z,5.20
2023-01-07T03:40:03.453Z,5.32
2023-01-07T03:42:40.572Z,5.18
2023-01-07T03:45:18.696Z,5.18
2023-01-07T03:47:52.085Z,5.25
2023-01-07T03:50:20.517Z,5.15
2023-01-07T03:52:51.628Z,4.78
2023-01-07T03:55:20.566Z,5.20
2023-01-07T04:00:17.778Z,5.20
2023-01-07T04:02:53.093Z,4.80
2023-01-07T04:05:25.154Z,4.80
2023-01-07T04:07:52.818Z,4.28
2023-01-07T04:10:20.690Z,4.70
2023-01-07T04:12:48.420Z,4.47
2023-01-07T04:15:15.795Z,4.88
2023-01-07T04:17:43.106Z,4.90
2023-01-07T04:20:10.750Z,4.53
2023-01-07T04:22:38.031Z,4.45
2023-01-07T04:25:06.083Z,4.65
2023-01-07T04:27:34.330Z,4.82
2023-01-07T04:30:02.211Z,4.45
2023-01-07T04:32:34.173Z,4.53
2023-01-07T04:35:01.736Z,4.80
2023-01-07T04:37:30.328Z,4.78
2023-01-07T04:39:58.103Z,4.43
2023-01-07T04:42:26.160Z,4.35
2023-01-07T04:44:54.011Z,3.78
2023-01-07T04:47:21.323Z,4.68
2023-01-07T04:49:48.635Z,5.00
2023-01-07T04:52:16.233Z,4.10
2023-01-07T04:54:43.630Z,4.28
2023-01-07T04:57:11.128Z,4.13
2023-01-07T04:59:38.759Z,4.38
2023-01-07T05:02:07.066Z,5.13
2023-01-07T05:04:34.362Z,4.78
2023-01-07T05:07:02.245Z,4.28
2023-01-07T05:09:30.131Z,3.88
2023-01-07T05:11:58.005Z,4.30
2023-01-07T05:14:26.198Z,4.22
2023-01-07T05:16:55.034Z,4.20
2023-01-07T05:19:24.717Z,4.25
2023-01-07T05:21:52.861Z,3.97
2023-01-07T05:24:20.339Z,4.65
2023-01-07T05:26:47.981Z,4.32
2023-01-07T05:29:17.585Z,3.63
2023-01-07T05:31:46.263Z,3.80
2023-01-07T05:34:14.637Z,3.78
2023-01-07T05:36:43.622Z,3.88
2023-01-07T05:39:10.984Z,3.92
2023-01-07T05:41:38.771Z,3.75
2023-01-07T05:44:06.981Z,3.75
2023-01-07T05:46:34.259Z,3.55
2023-01-07T05:49:01.588Z,3.95
2023-01-07T05:51:28.823Z,3.85
2023-01-07T05:53:56.116Z,3.80
2023-01-07T05:56:23.336Z,3.78
2023-01-07T05:58:50.614Z,4.13
2023-01-07T06:01:18.027Z,3.58
2023-01-07T06:03:45.408Z,3.60
2023-01-07T06:06:13.155Z,3.50
2023-01-07T06:08:40.692Z,3.53
2023-01-07T06:11:08.346Z,3.60
2023-01-07T06:13:36.007Z,3.30
2023-01-07T06:16:04.414Z,3.33
2023-01-07T06:18:31.757Z,3.15
2023-01-07T06:20:59.080Z,3.60
2023-01-07T06:23:26.683Z,3.30
2023-01-07T06:25:53.995Z,3.20
2023-01-07T06:28:21.261Z,3.53
2023-01-07T06:30:48.848Z,3.83
2023-01-07T06:33:16.842Z,2.85
2023-01-07T06:35:45.694Z,2.92
2023-01-07T06:38:12.992Z,3.03
2023-01-07T06:40:40.329Z,3.22
2023-01-07T06:43:07.582Z,3.17
2023-01-07T06:45:34.803Z,2.97
2023-01-07T06:48:01.997Z,3.00
2023-01-07T06:50:29.491Z,3.15
2023-01-07T06:52:56.946Z,2.50
2023-01-07T06:55:24.198Z,3.22
2023-01-07T06:57:51.492Z,2.70
2023-01-07T07:00:18.863Z,2.90
2023-01-07T07:02:46.271Z,2.67
2023-01-07T07:05:13.808Z,2.70
2023-01-07T07:07:41.043Z,2.60
2023-01-07T07:10:08.641Z,2.50
2023-01-07T07:12:36.941Z,2.50
2023-01-07T07:15:04.737Z,2.80
2023-01-07T07:17:32.060Z,2.50
2023-01-07T07:19:59.314Z,2.53
2023-01-07T07:22:26.639Z,2.20
2023-01-07T07:24:53.845Z,2.65
2023-01-07T07:27:21.128Z,2.58
2023-01-07T07:29:48.310Z,2.50
2023-01-07T07:32:15.566Z,2.20
2023-01-07T07:34:42.835Z,2.30
2023-01-07T07:37:10.182Z,2.20
2023-01-07T07:39:37.465Z,2.13
2023-01-07T07:42:05.673Z,2.30
2023-01-07T07:44:32.992Z,2.25
2023-01-07T07:47:00.295Z,2.30
2023-01-07T07:49:27.596Z,2.38
2023-01-07T07:51:55.731Z,2.03
2023-01-07T07:54:24.002Z,2.22
2023-01-07T07:56:51.427Z,2.00
2023-01-07T07:59:18.851Z,1.77
2023-01-07T08:01:46.180Z,2.22
2023-01-07T08:04:13.519Z,1.67
2023-01-07T08:06:40.739Z,1.90
2023-01-07T08:09:08.079Z,1.92
2023-01-07T08:11:35.327Z,1.80
2023-01-07T08:14:02.784Z,1.90
2023-01-07T08:16:30.162Z,1.75
2023-01-07T08:18:57.537Z,1.80
2023-01-07T08:21:24.763Z,1.58
2023-01-07T08:23:52.093Z,1.70
2023-01-07T08:26:19.389Z,2.05
2023-01-07T08:28:46.949Z,1.65
2023-01-07T08:31:14.341Z,1.90
2023-01-07T08:33:41.606Z,1.80
2023-01-07T08:36:21.747Z,1.55
2023-01-07T08:38:53.698Z,1.70
2023-01-07T08:41:21.822Z,1.60
2023-01-07T08:43:49.126Z,1.70
2023-01-07T08:46:16.521Z,1.65
2023-01-07T08:48:44.025Z,1.65
2023-01-07T08:51:11.317Z,1.52
2023-01-07T08:53:38.536Z,1.70
2023-01-07T08:56:05.925Z,1.40
2023-01-07T08:58:33.243Z,1.70
2023-01-07T09:01:05.777Z,1.60
2023-01-07T09:03:33.484Z,1.80
2023-01-07T09:06:00.846Z,1.60
2023-01-07T09:08:28.080Z,1.60
2023-01-07T09:10:56.147Z,1.60
2023-01-07T09:13:23.421Z,1.40
2023-01-07T09:15:50.737Z,1.83
2023-01-07T09:18:18.068Z,1.60
2023-01-07T09:20:45.438Z,1.55
2023-01-07T09:23:13.013Z,1.60
2023-01-07T09:25:40.388Z,1.60
2023-01-07T09:28:07.648Z,1.50
2023-01-07T09:30:35.364Z,1.50
2023-01-07T09:33:02.641Z,1.40
2023-01-07T09:35:29.997Z,2.08
2023-01-07T09:37:57.259Z,2.85
2023-01-07T09:40:33.180Z,1.98
2023-01-07T09:43:22.259Z,2.00
2023-01-07T09:45:51.625Z,1.70
2023-01-07T09:50:49.571Z,1.40
2023-01-07T09:53:22.255Z,1.60
2023-01-07T09:56:10.762Z,1.50
2023-01-07T09:58:39.543Z,1.23
2023-01-07T10:01:22.280Z,1.35
2023-01-07T10:04:19.820Z,1.20
2023-01-07T10:06:51.348Z,1.08
2023-01-07T10:09:34.079Z,1.20
2023-01-07T10:12:13.967Z,1.27
2023-01-07T10:14:41.215Z,1.10
2023-01-07T10:17:13.204Z,1.30
2023-01-07T10:19:48.713Z,1.30
2023-01-07T10:22:42.298Z,1.40
2023-01-07T10:25:21.201Z,1.30
2023-01-07T10:27:48.804Z,1.33
2023-01-07T10:30:19.310Z,1.30
2023-01-07T10:32:47.362Z,1.30
2023-01-07T10:35:17.453Z,1.27
2023-01-07T10:37:44.816Z,1.40
2023-01-07T10:40:23.622Z,1.48
2023-01-07T10:43:09.761Z,1.50
2023-01-07T10:46:01.610Z,1.48
2023-01-07T10:48:47.679Z,1.52
2023-01-07T10:51:23.328Z,1.55
2023-01-07T10:54:09.284Z,1.33
2023-01-07T10:56:48.791Z,1.30
2023-01-07T10:59:18.113Z,1.10
2023-01-07T11:01:49.395Z,1.35
2023-01-07T11:04:17.269Z,1.20
2023-01-07T11:06:53.546Z,1.40
2023-01-07T11:09:37.761Z,1.40
2023-01-07T11:12:10.806Z,1.23
2023-01-07T11:14:41.369Z,1.15
2023-01-07T11:17:20.211Z,1.70
2023-01-07T11:19:54.204Z,1.17
2023-01-07T11:22:27.680Z,1.20
2023-01-07T11:24:55.391Z,1.40
2023-01-07T11:27:24.451Z,1.30
2023-01-07T11:30:13.250Z,1.42
2023-01-07T11:35:16.989Z,1.40
2023-01-07T11:37:47.071Z,1.30
2023-01-07T11:40:14.665Z,1.40
2023-01-07T11:42:48.107Z,1.20
2023-01-07T11:45:20.506Z,1.30
2023-01-07T11:48:09.099Z,1.20
2023-01-07T11:50:38.099Z,1.13
2023-01-07T11:53:14.223Z,1.23
2023-01-07T11:56:01.853Z,1.15
2023-01-07T11:58:33.889Z,1.20
2023-01-07T12:01:04.169Z,1.98
2023-01-07T12:03:31.783Z,1.60
2023-01-07T12:06:00.496Z,1.40
2023-01-07T12:08:27.851Z,1.63
2023-01-07T12:10:56.475Z,1.67
2023-01-07T12:13:27.360Z,1.20
2023-01-07T12:15:59.492Z,1.10
2023-01-07T12:18:51.654Z,1.10
2023-01-07T12:21:33.709Z,1.23
2023-01-07T12:24:10.547Z,1.30
2023-01-07T12:26:44.023Z,1.30
2023-01-07T12:29:17.459Z,1.10
2023-01-07T12:31:47.849Z,1.30
2023-01-07T12:34:15.980Z,1.20
2023-01-07T12:37:01.519Z,1.10
2023-01-07T12:39:35.144Z,1.40
2023-01-07T12:42:15.817Z,1.20
2023-01-07T12:44:54.019Z,1.20
2023-01-07T12:47:34.934Z,1.10
2023-01-07T12:50:05.485Z,1.45
2023-01-07T12:52:41.204Z,1.10
2023-01-07T12:57:37.499Z,1.20
2023-01-07T13:00:22.173Z,1.10
2023-01-07T13:02:59.015Z,1.20
2023-01-07T13:05:34.998Z,1.13
2023-01-07T13:08:04.180Z,1.30
2023-01-07T13:10:36.154Z,1.10
2023-01-07T13:13:05.610Z,1.40
2023-01-07T13:15:33.963Z,1.40
2023-01-07T13:18:15.931Z,1.30
2023-01-07T13:20:58.502Z,1.20
2023-01-07T13:23:44.596Z,1.30
2023-01-07T13:26:12.068Z,1.40
2023-01-07T13:28:48.786Z,1.30
2023-01-07T13:31:29.305Z,1.20
2023-01-07T13:34:08.805Z,1.52
2023-01-07T13:36:36.032Z,1.40
2023-01-07T13:39:16.995Z,1.30
2023-01-07T13:41:56.437Z,1.40
2023-01-07T13:44:23.756Z,1.30
2023-01-07T13:46:51.336Z,1.30
2023-01-07T13:49:29.906Z,1.40
2023-01-07T13:51:57.959Z,1.42
2023-01-07T13:54:44.347Z,1.20
2023-01-07T13:57:26.958Z,1.38
2023-01-07T13:59:59.104Z,1.40
2023-01-07T14:02:28.154Z,1.30
2023-01-07T14:05:07.708Z,1.42
2023-01-07T14:07:45.448Z,1.30
2023-01-07T14:10:24.866Z,1.35
2023-01-07T14:13:05.902Z,1.58
2023-01-07T14:15:39.209Z,1.38
2023-01-07T14:18:27.911Z,1.48
2023-01-07T14:21:04.500Z,1.60
2023-01-07T14:23:38.015Z,1.58
2023-01-07T14:26:24.130Z,1.40
2023-01-07T14:28:57.389Z,1.52
2023-01-07T14:31:29.789Z,1.33
2023-01-07T14:34:00.375Z,1.70
2023-01-07T14:36:47.607Z,1.45
2023-01-07T14:39:30.953Z,1.40
2023-01-07T14:42:16.636Z,1.70
2023-01-07T14:44:43.876Z,1.58
2023-01-07T14:47:15.208Z,1.65
2023-01-07T14:49:42.480Z,1.60
2023-01-07T14:52:28.290Z,1.73
2023-01-07T14:55:02.980Z,1.75
2023-01-07T14:57:39.119Z,1.90
2023-01-07T15:00:24.874Z,1.80
2023-01-07T15:03:11.101Z,1.85
2023-01-07T15:05:57.747Z,1.75
2023-01-07T15:08:45.178Z,1.55
2023-01-07T15:11:41.813Z,1.52
2023-01-07T15:14:43.348Z,1.90
2023-01-07T15:17:13.397Z,1.80
2023-01-07T15:19:40.885Z,1.88
2023-01-07T15:22:31.057Z,1.50
2023-01-07T15:25:51.912Z,1.90
2023-01-07T15:28:22.480Z,1.85
2023-01-07T15:31:04.040Z,1.83
2023-01-07T15:33:50.237Z,2.00
2023-01-07T15:36:17.661Z,1.60
2023-01-07T15:38:45.978Z,1.60
2023-01-07T15:41:22.368Z,1.80
2023-01-07T15:43:50.082Z,1.67
2023-01-07T15:46:17.571Z,1.92
2023-01-07T15:48:44.974Z,1.70
2023-01-07T15:51:15.934Z,1.95
2023-01-07T15:53:55.021Z,1.80
2023-01-07T15:56:22.324Z,1.83
2023-01-07T15:58:49.691Z,1.90
2023-01-07T16:01:21.037Z,1.92
2023-01-07T16:03:52.385Z,2.03
2023-01-07T16:06:32.111Z,1.85
2023-01-07T16:09:00.042Z,1.90
2023-01-07T16:11:28.550Z,1.77
2023-01-07T16:14:05.131Z,1.67
2023-01-07T16:16:33.006Z,1.88
2023-01-07T16:19:01.606Z,2.03
2023-01-07T16:21:35.899Z,2.10
2023-01-07T16:24:03.428Z,1.85
2023-01-07T16:26:36.068Z,2.20
2023-01-07T16:29:08.355Z,1.85
2023-01-07T16:31:36.050Z,2.03
2023-01-07T16:34:17.047Z,1.80
2023-01-07T16:36:44.805Z,1.90
2023-01-07T16:39:18.712Z,1.70
2023-01-07T16:41:45.972Z,2.08
2023-01-07T16:44:33.187Z,1.83
2023-01-07T16:47:07.982Z,1.80
2023-01-07T16:49:35.281Z,1.88
2023-01-07T16:52:05.922Z,2.22
2023-01-07T16:54:36.956Z,1.95
2023-01-07T16:57:13.659Z,2.00
2023-01-07T16:59:49.663Z,2.03
2023-01-07T17:02:34.687Z,1.80
2023-01-07T17:05:19.429Z,2.10
2023-01-07T17:07:57.199Z,2.10
2023-01-07T17:10:32.407Z,2.05
2023-01-07T17:13:01.598Z,1.80
2023-01-07T17:15:32.049Z,2.20
2023-01-07T17:18:11.649Z,2.58
2023-01-07T17:20:48.126Z,2.10
2023-01-07T17:23:27.673Z,2.00
2023-01-07T17:26:01.145Z,2.20
2023-01-07T17:28:33.307Z,2.00
2023-01-07T17:31:01.328Z,2.40
2023-01-07T17:33:28.968Z,2.22
2023-01-07T17:35:57.645Z,2.53
2023-01-07T17:38:25.046Z,2.67
2023-01-07T17:40:54.488Z,2.83
2023-01-07T17:43:36.910Z,2.45
2023-01-07T17:46:05.668Z,2.50
2023-01-07T17:48:33.619Z,2.30
2023-01-07T17:51:01.386Z,2.33
2023-01-07T17:53:38.010Z,2.58
2023-01-07T17:56:05.425Z,2.50
2023-01-07T17:58:33.674Z,2.33
2023-01-07T18:01:02.296Z,2.60
2023-01-07T18:03:30.072Z,2.55
2023-01-07T18:05:57.409Z,2.38
2023-01-07T18:08:24.773Z,2.33
2023-01-07T18:11:11.094Z,2.78
2023-01-07T18:13:38.486Z,2.13
2023-01-07T18:16:06.314Z,2.63
2023-01-07T18:18:33.585Z,2.60
2023-01-07T18:21:00.873Z,2.33
2023-01-07T18:23:28.173Z,2.80
2023-01-07T18:25:55.506Z,2.80
2023-01-07T18:28:22.764Z,2.42
2023-01-07T18:30:50.053Z,2.15
2023-01-07T18:33:17.350Z,2.75
2023-01-07T18:35:44.622Z,2.80
2023-01-07T18:38:13.058Z,2.88
2023-01-07T18:40:40.354Z,2.58
2023-01-07T18:43:08.009Z,3.10
2023-01-07T18:45:35.252Z,2.47
2023-01-07T18:48:02.496Z,2.42
2023-01-07T18:50:30.186Z,2.65
2023-01-07T18:52:57.431Z,2.47
2023-01-07T18:55:26.936Z,3.03
2023-01-07T18:57:54.403Z,2.78
2023-01-07T19:00:21.743Z,2.70
2023-01-07T19:02:49.096Z,2.60
2023-01-07T19:05:16.438Z,2.58
2023-01-07T19:07:43.668Z,2.75
2023-01-07T19:10:11.130Z,2.75
2023-01-07T19:12:38.369Z,2.60
2023-01-07T19:15:05.798Z,2.30
2023-01-07T19:17:33.831Z,2.63
2023-01-07T19:20:01.075Z,2.75
2023-01-07T19:22:28.377Z,2.53
2023-01-07T19:24:56.841Z,2.90
2023-01-07T19:27:24.779Z,2.80
2023-01-07T19:29:51.996Z,2.58
2023-01-07T19:32:19.368Z,2.88
2023-01-07T19:34:46.745Z,2.50
2023-01-07T19:37:14.036Z,2.40
2023-01-07T19:39:41.331Z,2.88
2023-01-07T19:42:09.885Z,2.58
2023-01-07T19:44:38.370Z,2.50
2023-01-07T19:47:05.629Z,2.80
2023-01-07T19:49:32.851Z,2.60
2023-01-07T19:52:00.182Z,2.80
2023-01-07T19:54:27.481Z,2.92
2023-01-07T19:56:54.767Z,3.55
2023-01-07T19:59:22.058Z,2.63
2023-01-07T20:01:50.048Z,2.88
2023-01-07T20:04:17.597Z,2.90
2023-01-07T20:06:46.734Z,3.22
2023-01-07T20:09:14.251Z,2.90
2023-01-07T20:11:43.018Z,3.00
2023-01-07T20:14:12.021Z,2.85
2023-01-07T20:16:41.448Z,3.28
2023-01-07T20:19:10.607Z,3.10
2023-01-07T20:21:37.914Z,2.60
2023-01-07T20:24:06.241Z,2.55
2023-01-07T20:26:34.163Z,3.13
2023-01-07T20:29:01.848Z,2.50
2023-01-07T20:31:29.975Z,2.45
2023-01-07T20:33:57.730Z,2.67
2023-01-07T20:36:28.619Z,2.85
2023-01-07T20:38:56.228Z,2.55
2023-01-07T20:41:24.827Z,2.85
2023-01-07T20:43:53.148Z,2.45
2023-01-07T20:46:20.857Z,2.83
2023-01-07T20:48:48.634Z,2.55
2023-01-07T20:51:16.696Z,2.95
2023-01-07T20:53:44.665Z,2.65
2023-01-07T20:56:12.567Z,2.85
2023-01-07T20:58:40.243Z,2.67
2023-01-07T21:01:08.751Z,2.90
2023-01-07T21:03:36.335Z,2.80
2023-01-07T21:06:03.745Z,2.65
2023-01-07T21:08:30.977Z,2.65
2023-01-07T21:10:58.315Z,2.78
2023-01-07T21:13:25.801Z,2.50
2023-01-07T21:15:53.075Z,2.80
2023-01-07T21:18:20.389Z,3.15
2023-01-07T21:20:48.019Z,2.60
2023-01-07T21:23:39.146Z,2.42
2023-01-07T21:26:13.765Z,2.40
2023-01-07T21:28:58.700Z,2.70
2023-01-07T21:32:04.374Z,2.25
2023-01-07T21:34:34.051Z,2.67
2023-01-07T21:37:10.136Z,2.58
2023-01-07T21:39:40.895Z,2.42
2023-01-07T21:42:09.312Z,2.80
2023-01-07T21:44:37.175Z,2.65
2023-01-07T21:47:04.707Z,2.60
2023-01-07T21:49:32.081Z,2.60
2023-01-07T21:51:59.397Z,2.53
2023-01-07T21:54:26.719Z,2.92
2023-01-07T21:56:54.081Z,2.42
2023-01-07T21:59:21.354Z,2.28
2023-01-07T22:01:49.311Z,2.40
2023-01-07T22:04:16.868Z,2.58
2023-01-07T22:06:44.560Z,2.75
2023-01-07T22:09:14.083Z,2.55
2023-01-07T22:11:42.146Z,2.70
2023-01-07T22:14:13.301Z,2.80
2023-01-07T22:16:40.603Z,2.90
2023-01-07T22:19:07.869Z,2.72
2023-01-07T22:21:35.127Z,2.70
2023-01-07T22:24:02.389Z,3.08
2023-01-07T22:26:29.856Z,2.60
2023-01-07T22:29:00.844Z,2.70
2023-01-07T22:31:32.090Z,2.55
2023-01-07T22:33:59.733Z,2.70
2023-01-07T22:36:32.858Z,2.83
2023-01-07T22:39:03.553Z,2.85
2023-01-07T22:41:32.561Z,2.80
2023-01-07T22:44:11.715Z,3.13
2023-01-07T22:46:39.070Z,2.33
2023-01-07T22:49:06.719Z,2.40
2023-01-07T22:51:38.619Z,2.80
2023-01-07T22:54:06.120Z,2.35
2023-01-07T22:56:33.767Z,3.05
2023-01-07T22:59:01.036Z,2.83
2023-01-07T23:01:29.798Z,2.88
2023-01-07T23:03:57.249Z,2.97
2023-01-07T23:06:24.618Z,2.80
2023-01-07T23:08:51.877Z,3.10
2023-01-07T23:11:37.701Z,2.97
2023-01-07T23:14:04.991Z,2.75
2023-01-07T23:16:32.351Z,2.90
2023-01-07T23:18:59.591Z,2.63
2023-01-07T23:21:27.164Z,2.63
2023-01-07T23:23:54.423Z,2.88
2023-01-07T23:26:21.756Z,2.55
2023-01-07T23:28:49.015Z,2.60
2023-01-07T23:31:16.059Z,3.28
2023-01-07T23:33:43.295Z,2.75
2023-01-07T23:36:10.796Z,2.90
2023-01-07T23:38:38.108Z,3.15
2023-01-07T23:41:09.039Z,2.85
2023-01-07T23:43:36.711Z,3.20
2023-01-07T23:46:04.882Z,2.30
2023-01-07T23:48:32.914Z,1.85
2023-01-07T23:51:07.662Z,1.80
2023-01-07T23:53:35.255Z,1.30
2023-01-07T23:56:03.159Z,1.40
2023-01-07T23:58:31.072Z,1.40
